createdAt,value
2023-03-26T00:00:27.249Z,0
2023-03-26T00:01:26.801Z,0
2023-03-26T00:02:27.218Z,0.109
2023-03-26T00:03:25.292Z,0
2023-03-26T00:04:25.969Z,0.109
2023-03-26T00:05:25.128Z,0.109
2023-03-26T00:06:25.826Z,0
2023-03-26T00:07:24.939Z,0
2023-03-26T00:08:24.639Z,0.109
2023-03-26T00:09:26.349Z,0
2023-03-26T00:10:25.831Z,0
2023-03-26T00:11:24.249Z,0
2023-03-26T00:12:25.944Z,0
2023-03-26T00:13:26.170Z,0
2023-03-26T00:14:25.082Z,0
2023-03-26T00:15:26.034Z,0
2023-03-26T00:16:24.748Z,0.219
2023-03-26T00:17:24.955Z,0
2023-03-26T00:18:26.899Z,0.109
2023-03-26T00:19:25.490Z,0
2023-03-26T00:20:25.088Z,0
2023-03-26T00:21:24.828Z,0.109
2023-03-26T00:22:24.714Z,0.219
2023-03-26T00:23:25.954Z,0
2023-03-26T00:24:26.045Z,0
2023-03-26T00:25:24.459Z,0.109
2023-03-26T00:26:25.250Z,0.219
2023-03-26T00:27:25.220Z,0
2023-03-26T00:28:47.083Z,0.109
2023-03-26T00:29:26.331Z,0
2023-03-26T00:30:26.099Z,0
2023-03-26T00:31:24.721Z,0
2023-03-26T00:32:24.930Z,0
2023-03-26T00:33:25.074Z,0
2023-03-26T00:34:26.157Z,0
2023-03-26T00:35:26.290Z,0
2023-03-26T00:37:32.559Z,0
2023-03-26T00:38:26.474Z,0
2023-03-26T00:39:26.090Z,0
2023-03-26T00:40:25.444Z,0
2023-03-26T00:41:25.075Z,0
2023-03-26T00:42:25.345Z,0.109
2023-03-26T00:43:24.937Z,0
2023-03-26T00:44:24.733Z,0
2023-03-26T00:45:25.009Z,0.109
2023-03-26T00:46:25.485Z,0.109
2023-03-26T00:47:25.031Z,0
2023-03-26T00:48:37.854Z,0.109
2023-03-26T00:49:23.816Z,0
2023-03-26T00:50:26.005Z,0.109
2023-03-26T00:51:25.829Z,0
2023-03-26T00:52:26.400Z,0.219
2023-03-26T00:53:25.742Z,0
2023-03-26T00:54:25.643Z,0
2023-03-26T00:55:26.376Z,0
2023-03-26T00:56:25.923Z,0
2023-03-26T00:57:34.969Z,0.109
2023-03-26T00:58:25.584Z,0
2023-03-26T00:59:25.951Z,0.119
2023-03-26T01:00:31.257Z,0
2023-03-26T01:02:25.948Z,0
2023-03-26T01:03:28.034Z,0
2023-03-26T01:04:25.030Z,0
2023-03-26T01:05:25.448Z,0
2023-03-26T01:06:25.491Z,0.119
2023-03-26T01:07:26.216Z,0.219
2023-03-26T01:08:25.664Z,0
2023-03-26T01:09:25.438Z,0
2023-03-26T01:10:25.604Z,0
2023-03-26T01:11:25.177Z,0
2023-03-26T01:12:24.144Z,0
2023-03-26T01:13:25.507Z,0.340
2023-03-26T01:14:25.341Z,0
2023-03-26T01:15:26.565Z,0
2023-03-26T01:16:25.403Z,0.109
2023-03-26T01:17:26.862Z,0.219
2023-03-26T01:18:26.467Z,0.219
2023-03-26T01:19:26.014Z,0.109
2023-03-26T01:20:25.470Z,0.219
2023-03-26T01:21:24.883Z,0.109
2023-03-26T01:22:25.296Z,0
2023-03-26T01:23:25.337Z,0
2023-03-26T01:24:26.321Z,0.219
2023-03-26T01:25:26.485Z,0
2023-03-26T01:26:25.232Z,0.109
2023-03-26T01:27:25.697Z,0.219
2023-03-26T01:28:26.421Z,0
2023-03-26T01:29:27.049Z,0
2023-03-26T01:30:25.060Z,0.109
2023-03-26T01:31:25.241Z,0.109
2023-03-26T01:32:25.802Z,0
2023-03-26T01:33:24.869Z,0
2023-03-26T01:34:25.019Z,0
2023-03-26T01:35:24.308Z,0.109
2023-03-26T01:36:25.536Z,0.109
2023-03-26T01:37:26.069Z,0
2023-03-26T01:38:25.066Z,0.109
2023-03-26T01:39:26.763Z,0.109
2023-03-26T01:40:24.583Z,0
2023-03-26T01:41:25.882Z,0.340
2023-03-26T01:42:26.381Z,0.340
2023-03-26T01:43:26.273Z,0.219
2023-03-26T01:44:26.019Z,0.219
2023-03-26T01:45:26.858Z,0
2023-03-26T01:46:25.592Z,0
2023-03-26T01:47:25.731Z,0.449
2023-03-26T01:48:25.390Z,0.340
2023-03-26T01:49:25.865Z,0.219
2023-03-26T01:50:25.532Z,0.109
2023-03-26T01:51:26.316Z,0.219
2023-03-26T01:52:27.018Z,0.449
2023-03-26T01:53:25.487Z,0.449
2023-03-26T01:54:25.017Z,0.219
2023-03-26T01:55:25.468Z,0.340
2023-03-26T01:56:25.324Z,0.219
2023-03-26T01:57:25.822Z,0.219
2023-03-26T01:58:25.481Z,0.219
2023-03-26T01:59:26.043Z,0.109
2023-03-26T02:00:26.883Z,0.560
2023-03-26T02:01:26.030Z,0.109
2023-03-26T02:02:26.368Z,0.219
2023-03-26T02:03:29.895Z,0.219
2023-03-26T02:04:24.796Z,0
2023-03-26T02:05:25.852Z,0.340
2023-03-26T02:06:24.902Z,0.340
2023-03-26T02:07:26.000Z,0.109
2023-03-26T02:08:24.983Z,0
2023-03-26T02:09:25.539Z,0
2023-03-26T02:10:25.264Z,0.219
2023-03-26T02:11:34.746Z,0.219
2023-03-26T02:12:25.034Z,0.109
2023-03-26T02:13:25.596Z,0.219
2023-03-26T02:14:25.360Z,0.219
2023-03-26T02:15:25.534Z,0.109
2023-03-26T02:16:23.664Z,0.219
2023-03-26T02:17:24.888Z,0.109
2023-03-26T02:18:25.502Z,0.109
2023-03-26T02:19:25.221Z,0.340
2023-03-26T02:20:24.542Z,0.219
2023-03-26T02:21:25.345Z,0.680
2023-03-26T02:22:24.076Z,0.119
2023-03-26T02:23:25.905Z,0.449
2023-03-26T02:24:25.563Z,0.100
2023-03-26T02:25:25.734Z,0.109
2023-03-26T02:26:25.289Z,0.340
2023-03-26T02:27:25.739Z,0.239
2023-03-26T02:28:25.968Z,0.219
2023-03-26T02:29:25.924Z,0
2023-03-26T02:30:26.264Z,0
2023-03-26T02:31:25.725Z,0.109
2023-03-26T02:32:28.769Z,0.219
2023-03-26T02:33:25.116Z,0.219
2023-03-26T02:34:25.711Z,0.109
2023-03-26T02:35:26.290Z,0
2023-03-26T02:36:25.546Z,0.109
2023-03-26T02:37:26.292Z,0
2023-03-26T02:38:26.323Z,0
2023-03-26T02:39:26.466Z,0.109
2023-03-26T02:40:26.964Z,0
2023-03-26T02:41:25.899Z,0
2023-03-26T02:42:26.288Z,0
2023-03-26T02:43:24.886Z,0.109
2023-03-26T02:44:25.822Z,0.109
2023-03-26T02:45:26.161Z,0.219
2023-03-26T02:46:25.516Z,0
2023-03-26T02:47:25.667Z,0.340
2023-03-26T02:48:24.800Z,0.219
2023-03-26T02:49:25.182Z,0.219
2023-03-26T02:50:25.041Z,0.219
2023-03-26T02:51:24.321Z,0
2023-03-26T02:52:25.020Z,0.109
2023-03-26T02:53:24.763Z,0
2023-03-26T02:54:26.486Z,0.219
2023-03-26T02:55:25.699Z,0.219
2023-03-26T02:56:25.537Z,0.340
2023-03-26T02:57:25.726Z,0.219
2023-03-26T02:58:26.411Z,0.219
2023-03-26T02:59:26.040Z,0.219
2023-03-26T03:00:26.924Z,0.340
2023-03-26T03:01:25.727Z,0.340
2023-03-26T03:02:26.003Z,0.340
2023-03-26T03:03:25.897Z,0.340
2023-03-26T03:04:25.715Z,0.340
2023-03-26T03:05:24.508Z,0.340
2023-03-26T03:06:25.841Z,0.340
2023-03-26T03:07:25.334Z,0.340
2023-03-26T03:08:24.413Z,0.340
2023-03-26T03:09:24.947Z,0.340
2023-03-26T03:10:24.494Z,0.340
2023-03-26T03:11:25.210Z,0.340
2023-03-26T03:12:25.622Z,0.340
2023-03-26T03:13:25.013Z,0.340
2023-03-26T03:14:25.501Z,0.340
2023-03-26T03:15:25.400Z,0.340
2023-03-26T03:16:24.164Z,0.340
2023-03-26T03:17:25.441Z,0.340
2023-03-26T03:18:24.989Z,0.340
2023-03-26T03:19:26.509Z,0.340
2023-03-26T03:20:25.594Z,0.340
2023-03-26T03:21:26.068Z,0.340
2023-03-26T03:22:25.413Z,0.340
2023-03-26T03:23:25.865Z,0.340
2023-03-26T03:24:25.859Z,0.340
2023-03-26T03:25:25.614Z,0.340
2023-03-26T03:26:25.775Z,0.340
2023-03-26T03:27:25.576Z,0.340
2023-03-26T03:28:26.068Z,0.340
2023-03-26T03:29:26.585Z,0.340
2023-03-26T03:30:25.206Z,0.340
2023-03-26T03:31:26.352Z,0.340
2023-03-26T03:32:25.113Z,0.340
2023-03-26T03:33:25.457Z,0.340
2023-03-26T03:34:24.832Z,0.340
2023-03-26T03:35:25.395Z,0.340
2023-03-26T03:36:25.701Z,0.340
2023-03-26T03:37:23.934Z,0.340
2023-03-26T03:38:25.411Z,0.340
2023-03-26T03:39:24.666Z,0.340
2023-03-26T03:40:25.125Z,0.340
2023-03-26T03:41:24.587Z,0.340
2023-03-26T03:42:25.669Z,0.340
2023-03-26T03:43:23.874Z,0.340
2023-03-26T03:44:26.130Z,0.340
2023-03-26T03:45:24.816Z,0.340
2023-03-26T03:46:24.321Z,0.340
2023-03-26T03:47:24.877Z,0.340
2023-03-26T03:48:24.582Z,0.340
2023-03-26T03:49:25.064Z,0.340
2023-03-26T03:50:25.186Z,0.340
2023-03-26T03:51:24.837Z,0.340
2023-03-26T03:52:25.922Z,0.340
2023-03-26T03:53:24.565Z,0.340
2023-03-26T03:54:26.072Z,0.340
2023-03-26T03:55:25.397Z,0.340
2023-03-26T03:56:25.231Z,0.340
2023-03-26T03:57:25.806Z,0.340
2023-03-26T03:58:26.133Z,0.340
2023-03-26T03:59:25.802Z,0.340
2023-03-26T04:00:26.690Z,0.340
2023-03-26T04:01:23.822Z,0.340
2023-03-26T04:02:24.523Z,0.340
2023-03-26T04:03:33.364Z,0.219
2023-03-26T04:04:27.045Z,0.109
2023-03-26T04:05:24.574Z,0.109
2023-03-26T04:06:25.274Z,0.109
2023-03-26T04:07:26.490Z,0.219
2023-03-26T04:08:26.241Z,0
2023-03-26T04:09:27.790Z,0
2023-03-26T04:10:26.715Z,0.109
2023-03-26T04:11:26.254Z,0.109
2023-03-26T04:12:26.252Z,0.109
2023-03-26T04:13:26.196Z,0
2023-03-26T04:14:25.372Z,0
2023-03-26T04:15:24.762Z,0
2023-03-26T04:16:25.324Z,0
2023-03-26T04:17:26.482Z,0.219
2023-03-26T04:18:25.292Z,0.219
2023-03-26T04:19:26.098Z,0
2023-03-26T04:20:26.134Z,0.219
2023-03-26T04:21:26.139Z,0.219
2023-03-26T04:22:25.623Z,0.219
2023-03-26T04:23:24.892Z,0.219
2023-03-26T04:24:25.222Z,0
2023-03-26T04:25:25.735Z,0
2023-03-26T04:26:24.455Z,0.219
2023-03-26T04:27:24.875Z,0.219
2023-03-26T04:28:25.154Z,0.109
2023-03-26T04:29:26.256Z,0
2023-03-26T04:30:27.107Z,0
2023-03-26T04:31:25.749Z,0.219
2023-03-26T04:32:30.925Z,0.340
2023-03-26T04:33:24.075Z,0.109
2023-03-26T04:34:25.528Z,0.340
2023-03-26T04:35:25.257Z,0.109
2023-03-26T04:36:30.293Z,0.340
2023-03-26T04:37:24.895Z,0.219
2023-03-26T04:38:24.393Z,0.219
2023-03-26T04:39:25.021Z,0.109
2023-03-26T04:40:24.698Z,0.109
2023-03-26T04:41:25.781Z,0
2023-03-26T04:42:27.469Z,0
2023-03-26T04:43:25.286Z,0
2023-03-26T04:44:25.426Z,0
2023-03-26T04:45:25.772Z,0.219
2023-03-26T04:46:26.555Z,0
2023-03-26T04:47:25.950Z,0
2023-03-26T04:48:25.544Z,0
2023-03-26T04:49:26.940Z,0
2023-03-26T04:50:25.020Z,0
2023-03-26T04:51:24.625Z,13600
2023-03-26T04:52:24.185Z,0
2023-03-26T04:53:25.372Z,0
2023-03-26T04:54:26.332Z,0
2023-03-26T04:55:25.836Z,0
2023-03-26T04:56:39.137Z,0
2023-03-26T04:57:24.553Z,0
2023-03-26T04:58:38.850Z,13600
2023-03-26T04:59:27.043Z,13600
2023-03-26T05:00:26.811Z,0
2023-03-26T05:01:26.309Z,0
2023-03-26T05:02:25.299Z,0
2023-03-26T05:03:26.629Z,0
2023-03-26T05:04:25.469Z,0.239
2023-03-26T05:05:25.846Z,0.680
2023-03-26T05:06:25.439Z,0.5
2023-03-26T05:07:25.895Z,0.029
2023-03-26T05:08:27.301Z,0.449
2023-03-26T05:09:25.841Z,0.449
2023-03-26T05:10:46.049Z,1.279
2023-03-26T05:11:24.523Z,1.809
2023-03-26T05:12:24.922Z,1.159
2023-03-26T05:13:24.491Z,2.119
2023-03-26T05:14:26.325Z,3.230
2023-03-26T05:15:26.533Z,3.609
2023-03-26T05:16:24.819Z,5.059
2023-03-26T05:17:24.291Z,6.889
2023-03-26T05:18:24.872Z,8.729
2023-03-26T05:19:24.195Z,10.68
2023-03-26T05:20:25.578Z,12.68
2023-03-26T05:21:25.973Z,14.98
2023-03-26T05:22:25.089Z,17.19
2023-03-26T05:23:25.130Z,19.54
2023-03-26T05:24:27.224Z,22.01
2023-03-26T05:25:26.038Z,24.07
2023-03-26T05:26:25.359Z,26.5
2023-03-26T05:27:26.666Z,27.29
2023-03-26T05:28:25.750Z,28.70
2023-03-26T05:29:26.552Z,30.06
2023-03-26T05:30:26.787Z,31.82
2023-03-26T05:31:25.768Z,33.81
2023-03-26T05:32:26.529Z,35.79
2023-03-26T05:33:25.140Z,38
2023-03-26T05:34:26.126Z,40.63
2023-03-26T05:35:27.061Z,42.90
2023-03-26T05:36:25.807Z,45.13
2023-03-26T05:37:26.020Z,46.24
2023-03-26T05:38:26.793Z,48.15
2023-03-26T05:39:26.771Z,48.41
2023-03-26T05:40:26.351Z,47.20
2023-03-26T05:41:25.579Z,45.68
2023-03-26T05:42:26.888Z,47.24
2023-03-26T05:43:27.721Z,48.56
2023-03-26T05:44:27.341Z,50.61
2023-03-26T05:45:25.124Z,52.40
2023-03-26T05:46:25.526Z,54.59
2023-03-26T05:47:25.780Z,57.70
2023-03-26T05:48:27.061Z,60.18
2023-03-26T05:49:26.200Z,63
2023-03-26T05:50:26.573Z,66.40
2023-03-26T05:51:26.360Z,70.80
2023-03-26T05:52:25.884Z,78.30
2023-03-26T05:53:26.105Z,88
2023-03-26T05:54:26.579Z,101
2023-03-26T05:55:27.386Z,116
2023-03-26T05:56:26.350Z,130
2023-03-26T05:57:26.893Z,144
2023-03-26T05:58:26.554Z,156.1
2023-03-26T05:59:27.117Z,165.6
2023-03-26T06:00:25.934Z,173.6
2023-03-26T06:01:25.651Z,180.3
2023-03-26T06:02:26.118Z,184.0
2023-03-26T06:03:25.491Z,188.5
2023-03-26T06:04:27.248Z,195.5
2023-03-26T06:05:27.542Z,202.3
2023-03-26T06:06:25.851Z,206.8
2023-03-26T06:07:25.706Z,210.1
2023-03-26T06:08:25.443Z,214
2023-03-26T06:09:26.490Z,217.6
2023-03-26T06:10:26.569Z,216.0
2023-03-26T06:11:25.039Z,217
2023-03-26T06:12:25.185Z,225
2023-03-26T06:13:25.025Z,235
2023-03-26T06:14:25.548Z,240.1
2023-03-26T06:15:26.245Z,239.9
2023-03-26T06:16:27.292Z,241.5
2023-03-26T06:17:27.052Z,245.6
2023-03-26T06:18:26.023Z,248.9
2023-03-26T06:19:25.356Z,252.3
2023-03-26T06:20:25.342Z,263
2023-03-26T06:21:24.850Z,279
2023-03-26T06:22:24.231Z,296
2023-03-26T06:23:25.897Z,310
2023-03-26T06:24:25.912Z,322.5
2023-03-26T06:25:26.561Z,329.6
2023-03-26T06:26:25.904Z,333.2
2023-03-26T06:27:25.427Z,336.7
2023-03-26T06:28:25.268Z,334.7
2023-03-26T06:29:26.090Z,323
2023-03-26T06:30:26.995Z,311
2023-03-26T06:31:25.732Z,302.3
2023-03-26T06:32:25.851Z,301.0
2023-03-26T06:33:26.139Z,307.2
2023-03-26T06:34:26.043Z,317
2023-03-26T06:35:25.313Z,330
2023-03-26T06:36:24.930Z,346
2023-03-26T06:37:25.779Z,364
2023-03-26T06:38:25.594Z,386
2023-03-26T06:39:25.908Z,412
2023-03-26T06:40:25.827Z,436
2023-03-26T06:41:26.422Z,460
2023-03-26T06:43:06.699Z,484
2023-03-26T06:43:33.008Z,507
2023-03-26T06:44:25.784Z,519.4
2023-03-26T06:45:25.642Z,528.5
2023-03-26T06:46:25.187Z,536.5
2023-03-26T06:47:25.499Z,536.5
2023-03-26T06:48:26.551Z,534.7
2023-03-26T06:49:28.774Z,538.5
2023-03-26T06:50:26.119Z,538.7
2023-03-26T06:51:22.905Z,527
2023-03-26T06:52:25.368Z,512
2023-03-26T06:53:25.185Z,510.7
2023-03-26T06:54:25.547Z,518.4
2023-03-26T06:55:25.104Z,518.5
2023-03-26T06:56:25.413Z,512.2
2023-03-26T06:57:24.924Z,505
2023-03-26T06:58:25.737Z,503
2023-03-26T06:59:29.248Z,506.7
2023-03-26T07:00:28.040Z,507
2023-03-26T07:01:27.476Z,496
2023-03-26T07:02:25.881Z,481
2023-03-26T07:03:25.390Z,463
2023-03-26T07:04:26.918Z,438
2023-03-26T07:05:26.975Z,420
2023-03-26T07:06:26.091Z,411
2023-03-26T07:07:33.978Z,411
2023-03-26T07:08:26.540Z,427
2023-03-26T07:09:26.589Z,447
2023-03-26T07:10:25.164Z,463
2023-03-26T07:11:33.491Z,471.6
2023-03-26T07:12:25.713Z,475.5
2023-03-26T07:13:24.653Z,483
2023-03-26T07:14:24.727Z,499
2023-03-26T07:15:25.068Z,513
2023-03-26T07:16:26.711Z,515.5
2023-03-26T07:17:26.094Z,508
2023-03-26T07:18:25.918Z,518
2023-03-26T07:19:26.300Z,538
2023-03-26T07:20:24.424Z,552
2023-03-26T07:21:25.172Z,566
2023-03-26T07:22:25.917Z,587
2023-03-26T07:23:26.200Z,610
2023-03-26T07:24:26.050Z,650
2023-03-26T07:25:25.995Z,680
2023-03-26T07:26:25.532Z,711
2023-03-26T07:27:26.551Z,710.4
2023-03-26T07:28:27.002Z,699.7
2023-03-26T07:29:41.334Z,691
2023-03-26T07:30:26.691Z,681
2023-03-26T07:31:26.768Z,672
2023-03-26T07:32:25.268Z,655
2023-03-26T07:33:26.677Z,639
2023-03-26T07:34:25.525Z,634.2
2023-03-26T07:35:26.402Z,649
2023-03-26T07:36:25.790Z,663.9
2023-03-26T07:37:24.958Z,672.7
2023-03-26T07:38:25.097Z,680.9
2023-03-26T07:39:28.044Z,689
2023-03-26T07:40:27.202Z,689
2023-03-26T07:41:25.998Z,678.5
2023-03-26T07:42:25.165Z,673.7
2023-03-26T07:43:26.524Z,670.7
2023-03-26T07:44:25.784Z,663
2023-03-26T07:45:26.111Z,650
2023-03-26T07:46:27.336Z,640.2
2023-03-26T07:47:26.265Z,635.6
2023-03-26T07:48:25.931Z,633.2
2023-03-26T07:49:26.663Z,629.4
2023-03-26T07:50:26.432Z,627.5
2023-03-26T07:51:25.851Z,622.0
2023-03-26T07:52:26.184Z,627
2023-03-26T07:53:25.491Z,646
2023-03-26T07:54:26.175Z,662
2023-03-26T07:55:27.208Z,674
2023-03-26T07:56:27.028Z,695
2023-03-26T07:57:26.235Z,721
2023-03-26T07:58:27.157Z,748
2023-03-26T07:59:26.256Z,773
2023-03-26T08:00:26.240Z,797
2023-03-26T08:01:27.372Z,818
2023-03-26T08:02:26.740Z,833
2023-03-26T08:04:34.478Z,881
2023-03-26T08:05:26.647Z,890
2023-03-26T08:06:26.141Z,903
2023-03-26T08:07:27.042Z,920
2023-03-26T08:08:26.669Z,960
2023-03-26T08:10:31.020Z,1080
2023-03-26T08:11:24.695Z,1123
2023-03-26T08:12:26.341Z,1130
2023-03-26T08:13:26.608Z,1080
2023-03-26T08:14:25.734Z,1023
2023-03-26T08:15:26.068Z,1050
2023-03-26T08:16:26.481Z,990
2023-03-26T08:17:25.874Z,986
2023-03-26T08:18:25.730Z,1030
2023-03-26T08:19:26.066Z,1100
2023-03-26T08:20:26.335Z,1100
2023-03-26T08:21:24.927Z,1030
2023-03-26T08:22:25.567Z,940
2023-03-26T08:23:25.995Z,950
2023-03-26T08:24:25.447Z,1020
2023-03-26T08:25:24.812Z,1080
2023-03-26T08:26:25.791Z,1070
2023-03-26T08:27:25.812Z,1040
2023-03-26T08:28:25.674Z,1070
2023-03-26T08:29:25.286Z,1200
2023-03-26T08:30:25.835Z,1350
2023-03-26T08:31:25.468Z,1374
2023-03-26T08:32:25.284Z,1400
2023-03-26T08:33:25.656Z,1500
2023-03-26T08:34:25.863Z,1650
2023-03-26T08:35:26.231Z,1620
2023-03-26T08:36:25.028Z,1550
2023-03-26T08:37:25.639Z,1470
2023-03-26T08:38:25.150Z,1390
2023-03-26T08:39:25.850Z,1378
2023-03-26T08:40:26.329Z,1380
2023-03-26T08:41:25.986Z,1374
2023-03-26T08:42:25.042Z,1394
2023-03-26T08:43:25.398Z,1360
2023-03-26T08:44:25.382Z,1325
2023-03-26T08:45:25.649Z,1350
2023-03-26T08:46:26.905Z,1378.
2023-03-26T08:47:25.785Z,1330
2023-03-26T08:48:24.021Z,1292.
2023-03-26T08:49:26.681Z,1310
2023-03-26T08:50:24.901Z,1380
2023-03-26T08:51:26.018Z,1440
2023-03-26T08:52:24.954Z,1500
2023-03-26T08:53:25.091Z,1600
2023-03-26T08:54:25.332Z,1800
2023-03-26T08:55:26.340Z,2000
2023-03-26T08:56:26.414Z,2000
2023-03-26T08:57:25.983Z,2000
2023-03-26T08:58:25.842Z,3000
2023-03-26T08:59:24.542Z,3480
2023-03-26T09:00:27.139Z,3500
2023-03-26T09:01:25.722Z,3650
2023-03-26T09:02:24.810Z,3700
2023-03-26T09:03:26.459Z,4000
2023-03-26T09:04:25.026Z,4000
2023-03-26T09:05:25.476Z,5000
2023-03-26T09:06:25.336Z,6000
2023-03-26T09:07:25.947Z,0
2023-03-26T09:08:26.008Z,7500
2023-03-26T09:09:25.686Z,0
2023-03-26T09:10:25.333Z,5000
2023-03-26T09:11:26.014Z,5000
2023-03-26T09:12:26.626Z,4700
2023-03-26T09:13:25.768Z,4500
2023-03-26T09:14:26.220Z,4000
2023-03-26T09:15:25.589Z,4000
2023-03-26T09:16:27.104Z,3000
2023-03-26T09:17:26.025Z,3000
2023-03-26T09:18:24.708Z,4000
2023-03-26T09:19:23.992Z,0
2023-03-26T09:20:28.679Z,6000
2023-03-26T09:21:24.026Z,5900
2023-03-26T09:22:23.605Z,5000
2023-03-26T09:23:23.231Z,0
2023-03-26T09:24:23.789Z,4000
2023-03-26T09:25:23.541Z,4000
2023-03-26T09:26:31.463Z,4000
2023-03-26T09:27:23.567Z,0
2023-03-26T09:28:31.230Z,6000
2023-03-26T09:29:23.976Z,0
2023-03-26T09:30:32.526Z,0
2023-03-26T09:31:23.605Z,9000
2023-03-26T09:32:31.523Z,0
2023-03-26T09:33:23.339Z,0
2023-03-26T09:34:37.089Z,10000
2023-03-26T09:35:24.254Z,0
2023-03-26T09:36:24.416Z,7000
2023-03-26T09:37:23.715Z,6000
2023-03-26T09:38:23.595Z,6000
2023-03-26T09:39:23.954Z,6000
2023-03-26T09:40:23.841Z,6000
2023-03-26T09:41:23.380Z,0
2023-03-26T09:42:23.789Z,5000
2023-03-26T09:43:23.450Z,5700
2023-03-26T09:44:37.960Z,0
2023-03-26T09:45:23.884Z,3000
2023-03-26T09:46:23.893Z,3500
2023-03-26T09:47:24.035Z,3300
2023-03-26T09:48:23.606Z,2000
2023-03-26T09:49:23.297Z,2100
2023-03-26T09:50:23.752Z,2200
2023-03-26T09:51:25.111Z,2300
2023-03-26T09:52:23.449Z,2100
2023-03-26T09:53:24.050Z,1900
2023-03-26T09:54:23.606Z,1880
2023-03-26T09:55:24.162Z,1920
2023-03-26T09:56:24.124Z,1800
2023-03-26T09:57:23.884Z,1900
2023-03-26T09:58:23.952Z,1900
2023-03-26T09:59:23.749Z,1900
2023-03-26T10:00:43.797Z,2100
2023-03-26T10:01:23.738Z,2060
2023-03-26T10:02:23.942Z,2100
2023-03-26T10:03:24.732Z,2290
2023-03-26T10:04:23.724Z,2300
2023-03-26T10:05:23.688Z,2000
2023-03-26T10:06:23.504Z,2900
2023-03-26T10:07:23.363Z,3042
2023-03-26T10:08:23.565Z,3000
2023-03-26T10:09:23.686Z,2910
2023-03-26T10:10:23.510Z,2946
2023-03-26T10:11:23.671Z,2800
2023-03-26T10:12:23.938Z,2700
2023-03-26T10:13:23.667Z,2610
2023-03-26T10:14:24.123Z,2550
2023-03-26T10:15:25.075Z,2500
2023-03-26T10:16:23.355Z,2700
2023-03-26T10:17:23.414Z,3000
2023-03-26T10:18:27.121Z,3103
2023-03-26T10:19:23.668Z,3092
2023-03-26T10:20:23.431Z,3070
2023-03-26T10:21:25.652Z,3000
2023-03-26T10:22:23.620Z,2800
2023-03-26T10:23:23.355Z,2800
2023-03-26T10:24:23.511Z,2897
2023-03-26T10:25:24.077Z,2900
2023-03-26T10:26:24.199Z,3000
2023-03-26T10:27:24.830Z,3200
2023-03-26T10:28:23.569Z,3280
2023-03-26T10:29:24.150Z,3400
2023-03-26T10:30:24.444Z,3650
2023-03-26T10:31:23.510Z,3500
2023-03-26T10:32:22.995Z,3600
2023-03-26T10:33:25.070Z,3780
2023-03-26T10:34:28.919Z,3600
2023-03-26T10:35:23.392Z,3490
2023-03-26T10:36:24.125Z,3440
2023-03-26T10:37:23.724Z,3300
2023-03-26T10:38:23.794Z,3100
2023-03-26T10:39:36.129Z,3000
2023-03-26T10:40:23.522Z,2900
2023-03-26T10:41:23.459Z,3100
2023-03-26T10:42:23.465Z,3220
2023-03-26T10:43:23.279Z,3000
2023-03-26T10:44:24.077Z,2800
2023-03-26T10:45:24.168Z,2600
2023-03-26T10:46:23.815Z,2630
2023-03-26T10:47:23.777Z,2700
2023-03-26T10:48:23.359Z,2740
2023-03-26T10:49:24.240Z,2600
2023-03-26T10:50:23.937Z,2480
2023-03-26T10:51:23.392Z,2400
2023-03-26T10:52:23.512Z,2400
2023-03-26T10:53:23.588Z,2500
2023-03-26T10:54:23.720Z,2740
2023-03-26T10:55:25.431Z,2500
2023-03-26T10:56:24.049Z,2400
2023-03-26T10:57:23.988Z,2200
2023-03-26T10:58:24.082Z,2200
2023-03-26T10:59:23.829Z,2100
2023-03-26T11:00:24.041Z,2100
2023-03-26T11:01:23.951Z,2100
2023-03-26T11:02:30.275Z,2000
2023-03-26T11:03:24.364Z,2000
2023-03-26T11:04:24.152Z,2000
2023-03-26T11:05:24.535Z,2400
2023-03-26T11:06:23.066Z,2300
2023-03-26T11:07:23.477Z,2500
2023-03-26T11:08:31.371Z,2400
2023-03-26T11:09:23.497Z,2300
2023-03-26T11:10:23.816Z,2400
2023-03-26T11:11:23.200Z,2470
2023-03-26T11:12:26.552Z,2380
2023-03-26T11:13:23.376Z,2348
2023-03-26T11:14:33.840Z,2337
2023-03-26T11:15:23.763Z,2339
2023-03-26T11:16:24.681Z,2336
2023-03-26T11:17:39.223Z,2307
2023-03-26T11:18:23.696Z,2260
2023-03-26T11:19:23.553Z,2100
2023-03-26T11:20:23.652Z,2080
2023-03-26T11:21:23.456Z,2030
2023-03-26T11:22:23.763Z,2013
2023-03-26T11:23:23.619Z,2080
2023-03-26T11:24:24.200Z,2100
2023-03-26T11:25:23.593Z,2100
2023-03-26T11:26:23.736Z,2160
2023-03-26T11:27:25.193Z,2220
2023-03-26T11:28:23.448Z,2310
2023-03-26T11:29:32.630Z,2370
2023-03-26T11:30:23.402Z,2340
2023-03-26T11:31:23.831Z,2380
2023-03-26T11:32:23.394Z,2460
2023-03-26T11:33:22.878Z,2550
2023-03-26T11:34:23.556Z,2597
2023-03-26T11:35:39.273Z,2570
2023-03-26T11:36:23.505Z,2590
2023-03-26T11:37:22.924Z,2650
2023-03-26T11:38:22.972Z,2740
2023-03-26T11:39:24.109Z,2800
2023-03-26T11:40:23.477Z,2800
2023-03-26T11:41:23.628Z,2960
2023-03-26T11:42:23.502Z,3030
2023-03-26T11:43:23.451Z,3090
2023-03-26T11:44:23.027Z,3160
2023-03-26T11:45:28.310Z,3180
2023-03-26T11:46:23.938Z,3250
2023-03-26T11:47:23.309Z,3300
2023-03-26T11:48:23.762Z,3414
2023-03-26T11:49:23.083Z,3392
2023-03-26T11:50:22.800Z,3390
2023-03-26T11:51:23.665Z,3500
2023-03-26T11:52:23.214Z,3610
2023-03-26T11:53:23.104Z,3600
2023-03-26T11:54:23.438Z,3400
2023-03-26T11:55:23.236Z,3410
2023-03-26T11:56:23.397Z,3368
2023-03-26T11:57:23.735Z,3370
2023-03-26T11:58:23.328Z,3395
2023-03-26T11:59:23.739Z,3300
2023-03-26T12:00:24.614Z,3100
2023-03-26T12:01:37.025Z,3000
2023-03-26T12:02:23.319Z,2800
2023-03-26T12:03:23.323Z,2700
2023-03-26T12:04:23.286Z,2667
2023-03-26T12:05:23.633Z,2710
2023-03-26T12:06:23.822Z,2800
2023-03-26T12:07:37.394Z,2900
2023-03-26T12:08:22.798Z,3100
2023-03-26T12:09:23.224Z,3200
2023-03-26T12:10:23.297Z,3300
2023-03-26T12:11:23.046Z,3500
2023-03-26T12:12:23.211Z,3590
2023-03-26T12:13:42.279Z,3622
2023-03-26T12:14:23.626Z,3560
2023-03-26T12:15:24.259Z,3400
2023-03-26T12:16:23.252Z,3300
2023-03-26T12:17:31.522Z,3200
2023-03-26T12:18:23.327Z,3100
2023-03-26T12:19:23.391Z,3020
2023-03-26T12:20:23.032Z,2969
2023-03-26T12:21:23.125Z,2961
2023-03-26T12:22:24.013Z,2930
2023-03-26T12:23:23.204Z,2906
2023-03-26T12:24:23.725Z,2901.
2023-03-26T12:25:23.296Z,2920
2023-03-26T12:26:24.159Z,2970
2023-03-26T12:27:23.447Z,3003
2023-03-26T12:28:23.241Z,3000
2023-03-26T12:29:23.471Z,3200
2023-03-26T12:30:23.167Z,3400
2023-03-26T12:31:23.191Z,3540
2023-03-26T12:32:27.423Z,3540
2023-03-26T12:33:23.647Z,3532.
2023-03-26T12:34:23.376Z,3542
2023-03-26T12:35:23.310Z,3510
2023-03-26T12:36:23.088Z,3450
2023-03-26T12:37:23.003Z,3476
2023-03-26T12:38:22.572Z,3400
2023-03-26T12:40:09.379Z,3200
2023-03-26T12:40:36.024Z,3150
2023-03-26T12:43:19.754Z,3100
2023-03-26T12:44:43.804Z,3050
2023-03-26T12:44:49.271Z,2780
2023-03-26T12:44:55.431Z,2900
2023-03-26T12:46:03.687Z,2600
2023-03-26T12:47:56.314Z,2550
2023-03-26T12:47:57.090Z,2496
2023-03-26T12:48:53.466Z,2472
2023-03-26T12:49:29.113Z,2480
2023-03-26T12:50:34.099Z,2500
2023-03-26T12:51:22.858Z,2700
2023-03-26T12:52:23.494Z,2900
2023-03-26T12:53:23.020Z,3100
2023-03-26T12:54:22.807Z,3300
2023-03-26T12:55:21.843Z,3500
2023-03-26T12:56:23.073Z,3690
2023-03-26T12:57:23.592Z,3700
2023-03-26T12:58:22.967Z,3630
2023-03-26T12:59:23.123Z,3500
2023-03-26T13:00:24.606Z,3300
2023-03-26T13:01:23.190Z,3200
2023-03-26T13:02:23.144Z,3100
2023-03-26T13:03:23.332Z,3000
2023-03-26T13:04:23.278Z,2950
2023-03-26T13:05:23.535Z,2928.
2023-03-26T13:06:22.899Z,2934
2023-03-26T13:07:22.540Z,2936
2023-03-26T13:08:23.628Z,2940
2023-03-26T13:09:23.340Z,3010
2023-03-26T13:10:22.897Z,3000
2023-03-26T13:11:23.096Z,3200
2023-03-26T13:12:23.248Z,3300
2023-03-26T13:13:22.914Z,3370
2023-03-26T13:14:22.879Z,3419
2023-03-26T13:15:22.873Z,3410
2023-03-26T13:16:23.258Z,3300
2023-03-26T13:17:22.663Z,3100
2023-03-26T13:18:22.842Z,2800
2023-03-26T13:19:23.189Z,2600
2023-03-26T13:20:23.491Z,2300
2023-03-26T13:21:23.738Z,2100
2023-03-26T13:22:22.994Z,2000
2023-03-26T13:23:23.173Z,1800
2023-03-26T13:24:23.475Z,1700
2023-03-26T13:25:23.392Z,1660
2023-03-26T13:26:23.003Z,1637
2023-03-26T13:27:23.125Z,1637